PWSweather.com
Personal Weather Stations
Station Observations
KOHCLEVE171
Cleveland, OH

Cleveland, OH

Lat: 41.48646164, Lon: -81.46408081

Elevation: 1059

Station Type:

High Low Average
Temperature 44.8°F7.1°C 35.6°F2.0°C 40.4°F4.7°C
Dew Point 43.5°F6.4°C 25.0°F-3.9°C 37.5°F3.1°C
Winds 23.9 mph 38.5 kmh 0.2 mph 0.3 kmh 7.0 mph SSW11.3 kmh SSW
Wind Gusts 47.6 mph76.6 kmh 1.3 mph2.1 kmh 14.0 mph22.5 kmh
Humidity 96% 65% 90%
Pressure 30.11 in1019.6 mb 29.67 in1004.7 mb -
Precipitation 1.02 in25.9 mm - -
Hour Temp Dew Point Humidity Winds Wind Gusts Pressure Precip Precip Rate Daily Precip Total
12:03 AM 34.3°F1.3°C 22.3°F-5.4°C 61% 8.5 mph S13.7 kmh S 15.0 mph24.1 kmh 30.14 in1020.7 mb 0.00 in0.0 mm 0.00 in0.0 mm 0.00 in0.0 mm
12:08 AM 34.5°F1.4°C 23.2°F-4.9°C 63% 8.7 mph SSW14.0 kmh SSW 15.4 mph24.8 kmh 30.14 in1020.7 mb 0.00 in0.0 mm 0.00 in0.0 mm 0.00 in0.0 mm
12:13 AM 34.5°F1.4°C 23.5°F-4.7°C 64% 5.1 mph SSE8.2 kmh SSE 8.5 mph13.7 kmh 30.13 in1020.3 mb 0.00 in0.0 mm 0.00 in0.0 mm 0.00 in0.0 mm
12:18 AM 34.9°F1.6°C 23.5°F-4.7°C 63% 8.3 mph SW13.4 kmh SW 13.9 mph22.4 kmh 30.13 in1020.3 mb 0.00 in0.0 mm 0.00 in0.0 mm 0.00 in0.0 mm
12:23 AM 35.1°F1.7°C 23.7°F-4.6°C 63% 8.9 mph S14.3 kmh S 19.9 mph32.0 kmh 30.13 in1020.3 mb 0.00 in0.0 mm 0.00 in0.0 mm 0.00 in0.0 mm
12:28 AM 35.2°F1.8°C 23.9°F-4.5°C 63% 7.4 mph S11.9 kmh S 10.5 mph16.9 kmh 30.13 in1020.3 mb 0.00 in0.0 mm 0.00 in0.0 mm 0.00 in0.0 mm
12:33 AM 35.2°F1.8°C 23.9°F-4.5°C 63% 7.4 mph SSW11.9 kmh SSW 18.3 mph29.5 kmh 30.13 in1020.3 mb 0.00 in0.0 mm 0.00 in0.0 mm 0.00 in0.0 mm
12:38 AM 35.6°F2.0°C 24.6°F-4.1°C 64% 10.1 mph SSW16.3 kmh SSW 15.9 mph25.6 kmh 30.13 in1020.3 mb 0.00 in0.0 mm 0.00 in0.0 mm 0.00 in0.0 mm
12:43 AM 35.6°F2.0°C 24.6°F-4.1°C 64% 7.4 mph S11.9 kmh S 11.2 mph18.0 kmh 30.13 in1020.3 mb 0.00 in0.0 mm 0.00 in0.0 mm 0.00 in0.0 mm
12:48 AM 35.8°F2.1°C 24.8°F-4.0°C 64% 8.7 mph S14.0 kmh S 13.4 mph21.6 kmh 30.12 in1020.0 mb 0.00 in0.0 mm 0.00 in0.0 mm 0.00 in0.0 mm
12:53 AM 35.8°F2.1°C 24.8°F-4.0°C 64% 7.2 mph S11.6 kmh S 11.0 mph17.7 kmh 30.12 in1020.0 mb 0.00 in0.0 mm 0.00 in0.0 mm 0.00 in0.0 mm
01:03 AM 35.6°F2.0°C 25.0°F-3.9°C 65% 5.1 mph S8.2 kmh S 7.6 mph12.2 kmh 30.11 in1019.6 mb 0.00 in0.0 mm 0.00 in0.0 mm 0.00 in0.0 mm
01:08 AM 35.8°F2.1°C 25.5°F-3.6°C 66% 7.8 mph SSW12.6 kmh SSW 14.1 mph22.7 kmh 30.11 in1019.6 mb 0.00 in0.0 mm 0.00 in0.0 mm 0.00 in0.0 mm
01:13 AM 35.8°F2.1°C 25.5°F-3.6°C 66% 6.9 mph SSW11.1 kmh SSW 12.1 mph19.5 kmh 30.10 in1019.3 mb 0.00 in0.0 mm 0.00 in0.0 mm 0.00 in0.0 mm
01:18 AM 36.0°F2.2°C 25.7°F-3.5°C 66% 7.8 mph S12.6 kmh S 15.7 mph25.3 kmh 30.10 in1019.3 mb 0.00 in0.0 mm 0.00 in0.0 mm 0.00 in0.0 mm
01:23 AM 36.1°F2.3°C 25.9°F-3.4°C 66% 8.7 mph S14.0 kmh S 12.1 mph19.5 kmh 30.09 in1019.0 mb 0.00 in0.0 mm 0.00 in0.0 mm 0.00 in0.0 mm
01:28 AM 36.3°F2.4°C 26.1°F-3.3°C 66% 6.7 mph SSW10.8 kmh SSW 11.6 mph18.7 kmh 30.09 in1019.0 mb 0.00 in0.0 mm 0.00 in0.0 mm 0.00 in0.0 mm
01:33 AM 36.3°F2.4°C 26.1°F-3.3°C 66% 6.7 mph S10.8 kmh S 10.7 mph17.2 kmh 30.09 in1019.0 mb 0.00 in0.0 mm 0.00 in0.0 mm 0.00 in0.0 mm
01:38 AM 36.5°F2.5°C 26.6°F-3.0°C 67% 6.9 mph SSW11.1 kmh SSW 12.1 mph19.5 kmh 30.09 in1019.0 mb 0.00 in0.0 mm 0.00 in0.0 mm 0.00 in0.0 mm
01:43 AM 36.5°F2.5°C 26.6°F-3.0°C 67% 13.4 mph SW21.6 kmh SW 21.5 mph34.6 kmh 30.09 in1019.0 mb 0.00 in0.0 mm 0.00 in0.0 mm 0.00 in0.0 mm
01:48 AM 36.7°F2.6°C 26.8°F-2.9°C 67% 7.6 mph SSW12.2 kmh SSW 10.5 mph16.9 kmh 30.09 in1019.0 mb 0.00 in0.0 mm 0.00 in0.0 mm 0.00 in0.0 mm
01:53 AM 36.9°F2.7°C 27.0°F-2.8°C 67% 8.9 mph S14.3 kmh S 14.8 mph23.8 kmh 30.08 in1018.6 mb 0.00 in0.0 mm 0.00 in0.0 mm 0.00 in0.0 mm
01:58 AM 36.9°F2.7°C 27.0°F-2.8°C 67% 8.5 mph S13.7 kmh S 15.9 mph25.6 kmh 30.07 in1018.3 mb 0.00 in0.0 mm 0.00 in0.0 mm 0.00 in0.0 mm
02:03 AM 36.9°F2.7°C 27.0°F-2.8°C 67% 7.6 mph SSW12.2 kmh SSW 11.2 mph18.0 kmh 30.07 in1018.3 mb 0.00 in0.0 mm 0.00 in0.0 mm 0.00 in0.0 mm
02:08 AM 37.0°F2.8°C 27.1°F-2.7°C 67% 9.4 mph S15.1 kmh S 21.3 mph34.3 kmh 30.06 in1017.9 mb 0.00 in0.0 mm 0.00 in0.0 mm 0.00 in0.0 mm
02:13 AM 37.2°F2.9°C 27.3°F-2.6°C 67% 9.6 mph SSW15.4 kmh SSW 14.5 mph23.3 kmh 30.06 in1017.9 mb 0.00 in0.0 mm 0.00 in0.0 mm 0.00 in0.0 mm
02:18 AM 37.2°F2.9°C 27.3°F-2.6°C 67% 7.6 mph S12.2 kmh S 22.1 mph35.6 kmh 30.06 in1017.9 mb 0.00 in0.0 mm 0.00 in0.0 mm 0.00 in0.0 mm
02:23 AM 37.2°F2.9°C 27.7°F-2.4°C 68% 8.3 mph SSW13.4 kmh SSW 12.1 mph19.5 kmh 30.06 in1017.9 mb 0.00 in0.0 mm 0.00 in0.0 mm 0.00 in0.0 mm
02:28 AM 37.2°F2.9°C 27.7°F-2.4°C 68% 8.7 mph SSW14.0 kmh SSW 14.8 mph23.8 kmh 30.06 in1017.9 mb 0.00 in0.0 mm 0.00 in0.0 mm 0.00 in0.0 mm
02:33 AM 37.2°F2.9°C 27.7°F-2.4°C 68% 7.6 mph S12.2 kmh S 12.5 mph20.1 kmh 30.05 in1017.6 mb 0.00 in0.0 mm 0.00 in0.0 mm 0.00 in0.0 mm
02:38 AM 37.4°F3.0°C 27.5°F-2.5°C 67% 9.6 mph SSW15.4 kmh SSW 18.1 mph29.1 kmh 30.05 in1017.6 mb 0.00 in0.0 mm 0.00 in0.0 mm 0.00 in0.0 mm
02:43 AM 37.4°F3.0°C 27.9°F-2.3°C 68% 6.0 mph S9.7 kmh S 11.0 mph17.7 kmh 30.04 in1017.3 mb 0.00 in0.0 mm 0.00 in0.0 mm 0.00 in0.0 mm
02:48 AM 37.8°F3.2°C 27.9°F-2.3°C 67% 5.8 mph S9.3 kmh S 9.4 mph15.1 kmh 30.04 in1017.3 mb 0.00 in0.0 mm 0.00 in0.0 mm 0.00 in0.0 mm
02:53 AM 37.8°F3.2°C 27.9°F-2.3°C 67% 5.6 mph S9.0 kmh S 8.5 mph13.7 kmh 30.04 in1017.3 mb 0.00 in0.0 mm 0.00 in0.0 mm 0.00 in0.0 mm
02:58 AM 37.8°F3.2°C 28.2°F-2.1°C 68% 5.4 mph S8.7 kmh S 8.9 mph14.3 kmh 30.04 in1017.3 mb 0.00 in0.0 mm 0.00 in0.0 mm 0.00 in0.0 mm
03:03 AM 37.9°F3.3°C 28.0°F-2.2°C 67% 8.7 mph SSW14.0 kmh SSW 13.0 mph20.9 kmh 30.04 in1017.3 mb 0.00 in0.0 mm 0.00 in0.0 mm 0.00 in0.0 mm
03:08 AM 38.1°F3.4°C 28.0°F-2.2°C 67% 7.6 mph SW12.2 kmh SW 13.0 mph20.9 kmh 30.04 in1017.3 mb 0.00 in0.0 mm 0.00 in0.0 mm 0.00 in0.0 mm
03:13 AM 38.3°F3.5°C 28.2°F-2.1°C 67% 9.6 mph S15.4 kmh S 16.6 mph26.7 kmh 30.04 in1017.3 mb 0.00 in0.0 mm 0.00 in0.0 mm 0.00 in0.0 mm
03:18 AM 38.5°F3.6°C 28.4°F-2.0°C 67% 8.1 mph SSW13.0 kmh SSW 11.0 mph17.7 kmh 30.04 in1017.3 mb 0.00 in0.0 mm 0.00 in0.0 mm 0.00 in0.0 mm
03:23 AM 38.5°F3.6°C 28.8°F-1.8°C 68% 8.1 mph SSW13.0 kmh SSW 12.3 mph19.8 kmh 30.04 in1017.3 mb 0.00 in0.0 mm 0.00 in0.0 mm 0.00 in0.0 mm
03:28 AM 38.5°F3.6°C 29.1°F-1.6°C 69% 8.3 mph SW13.4 kmh SW 11.0 mph17.7 kmh 30.04 in1017.3 mb 0.00 in0.0 mm 0.00 in0.0 mm 0.00 in0.0 mm
03:33 AM 38.5°F3.6°C 29.1°F-1.6°C 69% 10.1 mph SSW16.3 kmh SSW 19.0 mph30.6 kmh 30.04 in1017.3 mb 0.00 in0.0 mm 0.00 in0.0 mm 0.00 in0.0 mm
03:38 AM 38.5°F3.6°C 29.5°F-1.4°C 70% 8.1 mph S13.0 kmh S 15.4 mph24.8 kmh 30.05 in1017.6 mb 0.00 in0.0 mm 0.00 in0.0 mm 0.00 in0.0 mm
03:43 AM 38.5°F3.6°C 29.8°F-1.2°C 71% 7.4 mph SSW11.9 kmh SSW 12.3 mph19.8 kmh 30.05 in1017.6 mb 0.01 in0.3 mm 0.12 in3.0 mm 0.01 in0.3 mm
03:48 AM 38.3°F3.5°C 29.7°F-1.3°C 71% 10.1 mph SW16.3 kmh SW 16.1 mph25.9 kmh 30.05 in1017.6 mb 0.01 in0.3 mm 0.00 in0.0 mm 0.01 in0.3 mm
03:53 AM 38.3°F3.5°C 29.7°F-1.3°C 71% 7.8 mph SSW12.6 kmh SSW 12.5 mph20.1 kmh 30.05 in1017.6 mb 0.01 in0.3 mm 0.00 in0.0 mm 0.01 in0.3 mm
03:58 AM 38.3°F3.5°C 30.4°F-0.9°C 73% 10.1 mph SSW16.3 kmh SSW 20.4 mph32.8 kmh 30.05 in1017.6 mb 0.02 in0.5 mm 0.12 in3.0 mm 0.02 in0.5 mm
04:03 AM 38.1°F3.4°C 30.6°F-0.8°C 74% 4.9 mph S7.9 kmh S 8.1 mph13.0 kmh 30.05 in1017.6 mb 0.02 in0.5 mm 0.00 in0.0 mm 0.02 in0.5 mm
04:08 AM 37.9°F3.3°C 30.7°F-0.7°C 75% 6.9 mph S11.1 kmh S 22.4 mph36.0 kmh 30.05 in1017.6 mb 0.02 in0.5 mm 0.00 in0.0 mm 0.02 in0.5 mm
04:13 AM 37.8°F3.2°C 31.5°F-0.3°C 78% 8.3 mph SSW13.4 kmh SSW 13.2 mph21.2 kmh 30.04 in1017.3 mb 0.03 in0.8 mm 0.12 in3.0 mm 0.03 in0.8 mm
04:18 AM 37.6°F3.1°C 31.6°F-0.2°C 79% 6.0 mph SSW9.7 kmh SSW 10.5 mph16.9 kmh 30.04 in1017.3 mb 0.01 in0.3 mm 0.00 in0.0 mm 0.04 in1.0 mm
04:23 AM 37.4°F3.0°C 31.5°F-0.3°C 79% 8.9 mph SSW14.3 kmh SSW 15.2 mph24.5 kmh 30.04 in1017.3 mb 0.01 in0.3 mm 0.00 in0.0 mm 0.04 in1.0 mm
04:28 AM 37.4°F3.0°C 31.8°F-0.1°C 80% 6.3 mph S10.1 kmh S 9.2 mph14.8 kmh 30.04 in1017.3 mb 0.01 in0.3 mm 0.00 in0.0 mm 0.04 in1.0 mm
04:33 AM 37.4°F3.0°C 31.8°F-0.1°C 80% 8.9 mph SSW14.3 kmh SSW 14.8 mph23.8 kmh 30.04 in1017.3 mb 0.01 in0.3 mm 0.00 in0.0 mm 0.04 in1.0 mm
04:38 AM 37.4°F3.0°C 31.8°F-0.1°C 80% 6.7 mph SSW10.8 kmh SSW 9.6 mph15.4 kmh 30.04 in1017.3 mb 0.01 in0.3 mm 0.00 in0.0 mm 0.05 in1.3 mm
04:43 AM 37.2°F2.9°C 32.0°F0.0°C 81% 6.7 mph S10.8 kmh S 12.1 mph19.5 kmh 30.03 in1016.9 mb 0.01 in0.3 mm 0.00 in0.0 mm 0.05 in1.3 mm
04:48 AM 37.2°F2.9°C 32.0°F0.0°C 81% 6.9 mph SSW11.1 kmh SSW 11.0 mph17.7 kmh 30.03 in1016.9 mb 0.02 in0.5 mm 0.12 in3.0 mm 0.06 in1.5 mm
04:54 AM 37.2°F2.9°C 32.5°F0.3°C 83% 4.5 mph S7.2 kmh S 7.4 mph11.9 kmh 30.03 in1016.9 mb 0.02 in0.5 mm 0.00 in0.0 mm 0.06 in1.5 mm
04:58 AM 37.2°F2.9°C 32.0°F0.0°C 81% 8.5 mph SSW13.7 kmh SSW 16.3 mph26.2 kmh 30.02 in1016.6 mb 0.02 in0.5 mm 0.00 in0.0 mm 0.06 in1.5 mm
05:03 AM 37.2°F2.9°C 32.5°F0.3°C 83% 6.5 mph S10.5 kmh S 10.1 mph16.3 kmh 30.02 in1016.6 mb 0.04 in1.0 mm 0.02 in0.5 mm 0.06 in1.5 mm
05:08 AM 37.2°F2.9°C 32.5°F0.3°C 83% 7.4 mph SSW11.9 kmh SSW 12.5 mph20.1 kmh 30.02 in1016.6 mb 0.01 in0.3 mm 0.00 in0.0 mm 0.07 in1.8 mm
05:14 AM 37.2°F2.9°C 32.5°F0.3°C 83% 6.0 mph S9.7 kmh S 11.4 mph18.3 kmh 30.02 in1016.6 mb 0.01 in0.3 mm 0.00 in0.0 mm 0.07 in1.8 mm
05:19 AM 37.2°F2.9°C 32.9°F0.5°C 84% 5.4 mph S8.7 kmh S 8.7 mph14.0 kmh 30.02 in1016.6 mb 0.02 in0.5 mm 0.12 in3.0 mm 0.08 in2.0 mm
05:24 AM 37.2°F2.9°C 32.9°F0.5°C 84% 6.9 mph S11.1 kmh S 9.8 mph15.8 kmh 30.02 in1016.6 mb 0.02 in0.5 mm 0.00 in0.0 mm 0.08 in2.0 mm
05:29 AM 37.4°F3.0°C 33.1°F0.6°C 84% 8.7 mph S14.0 kmh S 15.0 mph24.1 kmh 30.02 in1016.6 mb 0.02 in0.5 mm 0.00 in0.0 mm 0.08 in2.0 mm
05:33 AM 37.4°F3.0°C 33.1°F0.6°C 84% 4.3 mph SSW6.9 kmh SSW 6.5 mph10.5 kmh 30.01 in1016.3 mb 0.03 in0.8 mm 0.15 in3.8 mm 0.09 in2.3 mm
05:39 AM 37.4°F3.0°C 33.1°F0.6°C 84% 9.8 mph SSW15.8 kmh SSW 14.5 mph23.3 kmh 30.01 in1016.3 mb 0.03 in0.8 mm 0.00 in0.0 mm 0.09 in2.3 mm
05:44 AM 37.6°F3.1°C 33.3°F0.7°C 84% 3.8 mph S6.1 kmh S 6.7 mph10.8 kmh 30.01 in1016.3 mb 0.03 in0.8 mm 0.00 in0.0 mm 0.09 in2.3 mm
05:49 AM 37.6°F3.1°C 33.3°F0.7°C 84% 6.5 mph S10.5 kmh S 10.5 mph16.9 kmh 30.01 in1016.3 mb 0.03 in0.8 mm 0.00 in0.0 mm 0.09 in2.3 mm
05:54 AM 37.6°F3.1°C 33.3°F0.7°C 84% 6.5 mph SSW10.5 kmh SSW 9.4 mph15.1 kmh 30.01 in1016.3 mb 0.04 in1.0 mm 0.12 in3.0 mm 0.10 in2.5 mm
05:59 AM 37.6°F3.1°C 33.3°F0.7°C 84% 5.1 mph S8.2 kmh S 7.2 mph11.6 kmh 30.01 in1016.3 mb 0.05 in1.3 mm 0.12 in3.0 mm 0.11 in2.8 mm
06:04 AM 37.6°F3.1°C 33.3°F0.7°C 84% 6.3 mph S10.1 kmh S 10.1 mph16.3 kmh 30.00 in1015.9 mb 0.05 in1.3 mm 0.00 in0.0 mm 0.11 in2.8 mm
06:09 AM 37.6°F3.1°C 33.4°F0.8°C 85% 5.1 mph SSE8.2 kmh SSE 8.9 mph14.3 kmh 30.00 in1015.9 mb 0.01 in0.3 mm 0.00 in0.0 mm 0.12 in3.0 mm
06:14 AM 37.4°F3.0°C 33.6°F0.9°C 86% 4.9 mph SSW7.9 kmh SSW 7.6 mph12.2 kmh 30.00 in1015.9 mb 0.01 in0.3 mm 0.00 in0.0 mm 0.12 in3.0 mm
06:19 AM 37.4°F3.0°C 33.6°F0.9°C 86% 3.8 mph S6.1 kmh S 6.0 mph9.7 kmh 29.99 in1015.6 mb 0.03 in0.8 mm 0.24 in6.1 mm 0.14 in3.6 mm
06:24 AM 37.4°F3.0°C 33.6°F0.9°C 86% 6.0 mph SW9.7 kmh SW 13.2 mph21.2 kmh 30.00 in1015.9 mb 0.03 in0.8 mm 0.00 in0.0 mm 0.14 in3.6 mm
06:29 AM 37.4°F3.0°C 34.2°F1.2°C 88% 8.5 mph SSW13.7 kmh SSW 16.3 mph26.2 kmh 30.00 in1015.9 mb 0.04 in1.0 mm 0.12 in3.0 mm 0.15 in3.8 mm
06:34 AM 37.4°F3.0°C 34.2°F1.2°C 88% 6.7 mph S10.8 kmh S 12.3 mph19.8 kmh 29.99 in1015.6 mb 0.05 in1.3 mm 0.12 in3.0 mm 0.16 in4.1 mm
06:39 AM 37.2°F2.9°C 34.3°F1.3°C 89% 6.9 mph SSW11.1 kmh SSW 10.3 mph16.6 kmh 29.99 in1015.6 mb 0.06 in1.5 mm 0.12 in3.0 mm 0.17 in4.3 mm
06:44 AM 37.4°F3.0°C 34.5°F1.4°C 89% 3.4 mph S5.5 kmh S 6.0 mph9.7 kmh 30.00 in1015.9 mb 0.07 in1.8 mm 0.12 in3.0 mm 0.18 in4.6 mm
06:49 AM 37.4°F3.0°C 34.5°F1.4°C 89% 6.5 mph SW10.5 kmh SW 11.2 mph18.0 kmh 30.00 in1015.9 mb 0.07 in1.8 mm 0.00 in0.0 mm 0.18 in4.6 mm
06:54 AM 37.4°F3.0°C 34.5°F1.4°C 89% 2.7 mph NNW4.3 kmh NNW 4.5 mph7.2 kmh 30.00 in1015.9 mb 0.08 in2.0 mm 0.12 in3.0 mm 0.19 in4.8 mm
06:59 AM 37.4°F3.0°C 34.7°F1.5°C 90% 3.8 mph SW6.1 kmh SW 5.6 mph9.0 kmh 30.00 in1015.9 mb 0.09 in2.3 mm 0.12 in3.0 mm 0.20 in5.1 mm
07:04 AM 37.2°F2.9°C 34.5°F1.4°C 90% 3.1 mph SSE5.0 kmh SSE 4.3 mph6.9 kmh 30.00 in1015.9 mb 0.01 in0.3 mm 0.00 in0.0 mm 0.21 in5.3 mm
07:09 AM 37.2°F2.9°C 34.5°F1.4°C 90% 4.0 mph S6.4 kmh S 9.4 mph15.1 kmh 30.00 in1015.9 mb 0.02 in0.5 mm 0.12 in3.0 mm 0.22 in5.6 mm
07:14 AM 37.2°F2.9°C 34.5°F1.4°C 90% 3.4 mph S5.5 kmh S 5.1 mph8.2 kmh 30.00 in1015.9 mb 0.02 in0.5 mm 0.00 in0.0 mm 0.22 in5.6 mm
07:19 AM 37.0°F2.8°C 34.3°F1.3°C 90% 5.1 mph SW8.2 kmh SW 8.5 mph13.7 kmh 30.00 in1015.9 mb 0.03 in0.8 mm 0.12 in3.0 mm 0.23 in5.8 mm
07:24 AM 37.2°F2.9°C 34.5°F1.4°C 90% 3.1 mph S5.0 kmh S 5.1 mph8.2 kmh 29.99 in1015.6 mb 0.04 in1.0 mm 0.12 in3.0 mm 0.24 in6.1 mm
07:29 AM 37.2°F2.9°C 34.9°F1.6°C 91% 3.4 mph S5.5 kmh S 4.9 mph7.9 kmh 29.99 in1015.6 mb 0.04 in1.0 mm 0.00 in0.0 mm 0.24 in6.1 mm
07:34 AM 37.2°F2.9°C 34.5°F1.4°C 90% 2.5 mph SW4.0 kmh SW 3.4 mph5.5 kmh 29.99 in1015.6 mb 0.05 in1.3 mm 0.12 in3.0 mm 0.25 in6.4 mm
07:39 AM 37.0°F2.8°C 34.3°F1.3°C 90% 3.4 mph S5.5 kmh S 4.7 mph7.6 kmh 29.98 in1015.2 mb 0.06 in1.5 mm 0.12 in3.0 mm 0.26 in6.6 mm
07:44 AM 37.0°F2.8°C 34.7°F1.5°C 91% 5.8 mph SW9.3 kmh SW 8.1 mph13.0 kmh 29.99 in1015.6 mb 0.06 in1.5 mm 0.00 in0.0 mm 0.26 in6.6 mm
07:49 AM 37.2°F2.9°C 34.9°F1.6°C 91% 2.7 mph S4.3 kmh S 3.6 mph5.8 kmh 29.99 in1015.6 mb 0.06 in1.5 mm 0.00 in0.0 mm 0.26 in6.6 mm
07:54 AM 37.0°F2.8°C 34.7°F1.5°C 91% 4.3 mph SSW6.9 kmh SSW 6.5 mph10.5 kmh 29.99 in1015.6 mb 0.07 in1.8 mm 0.12 in3.0 mm 0.27 in6.9 mm
07:59 AM 37.0°F2.8°C 34.7°F1.5°C 91% 4.9 mph SSW7.9 kmh SSW 7.4 mph11.9 kmh 29.98 in1015.2 mb 0.08 in2.0 mm 0.12 in3.0 mm 0.28 in7.1 mm
08:04 AM 37.0°F2.8°C 34.7°F1.5°C 91% 4.7 mph SSW7.6 kmh SSW 7.2 mph11.6 kmh 29.98 in1015.2 mb 0.07 in1.8 mm 0.00 in0.0 mm 0.28 in7.1 mm
08:09 AM 37.2°F2.9°C 34.9°F1.6°C 91% 7.6 mph SW12.2 kmh SW 11.2 mph18.0 kmh 29.98 in1015.2 mb 0.07 in1.8 mm 0.00 in0.0 mm 0.28 in7.1 mm
08:14 AM 37.2°F2.9°C 34.9°F1.6°C 91% 5.8 mph S9.3 kmh S 11.0 mph17.7 kmh 29.97 in1014.9 mb 0.02 in0.5 mm 0.00 in0.0 mm 0.30 in7.6 mm
08:19 AM 37.2°F2.9°C 35.4°F1.9°C 93% 7.8 mph S12.6 kmh S 14.8 mph23.8 kmh 29.97 in1014.9 mb 0.02 in0.5 mm 0.00 in0.0 mm 0.30 in7.6 mm
08:24 AM 37.2°F2.9°C 35.4°F1.9°C 93% 4.5 mph S7.2 kmh S 6.7 mph10.8 kmh 29.96 in1014.6 mb 0.03 in0.8 mm 0.12 in3.0 mm 0.31 in7.9 mm
08:29 AM 37.2°F2.9°C 35.4°F1.9°C 93% 6.3 mph S10.1 kmh S 10.5 mph16.9 kmh 29.95 in1014.2 mb 0.04 in1.0 mm 0.12 in3.0 mm 0.32 in8.1 mm
08:34 AM 37.4°F3.0°C 35.6°F2.0°C 93% 4.9 mph S7.9 kmh S 6.7 mph10.8 kmh 29.95 in1014.2 mb 0.05 in1.3 mm 0.12 in3.0 mm 0.33 in8.4 mm
08:39 AM 37.4°F3.0°C 35.6°F2.0°C 93% 6.3 mph S10.1 kmh S 9.4 mph15.1 kmh 29.94 in1013.9 mb 0.05 in1.3 mm 0.00 in0.0 mm 0.34 in8.6 mm
08:44 AM 37.4°F3.0°C 35.6°F2.0°C 93% 4.5 mph S7.2 kmh S 7.2 mph11.6 kmh 29.94 in1013.9 mb 0.07 in1.8 mm 0.24 in6.1 mm 0.36 in9.1 mm
08:49 AM 37.4°F3.0°C 35.8°F2.1°C 94% 4.9 mph S7.9 kmh S 8.3 mph13.4 kmh 29.94 in1013.9 mb 0.08 in2.0 mm 0.12 in3.0 mm 0.37 in9.4 mm
08:54 AM 37.4°F3.0°C 35.8°F2.1°C 94% 5.6 mph S9.0 kmh S 10.5 mph16.9 kmh 29.94 in1013.9 mb 0.09 in2.3 mm 0.12 in3.0 mm 0.38 in9.7 mm
08:59 AM 37.4°F3.0°C 35.6°F2.0°C 93% 10.7 mph SSW17.2 kmh SSW 15.9 mph25.6 kmh 29.94 in1013.9 mb 0.09 in2.3 mm 0.00 in0.0 mm 0.38 in9.7 mm
09:04 AM 37.6°F3.1°C 36.0°F2.2°C 94% 7.6 mph S12.2 kmh S 13.4 mph21.6 kmh 29.93 in1013.5 mb 0.11 in2.8 mm 0.02 in0.5 mm 0.39 in9.9 mm
09:09 AM 37.6°F3.1°C 36.0°F2.2°C 94% 4.7 mph S7.6 kmh S 6.3 mph10.1 kmh 29.93 in1013.5 mb 0.01 in0.3 mm 0.00 in0.0 mm 0.40 in10.2 mm
09:14 AM 37.6°F3.1°C 36.0°F2.2°C 94% 7.2 mph SSW11.6 kmh SSW 11.0 mph17.7 kmh 29.93 in1013.5 mb 0.02 in0.5 mm 0.12 in3.0 mm 0.41 in10.4 mm
09:19 AM 37.8°F3.2°C 36.1°F2.3°C 94% 6.7 mph SSE10.8 kmh SSE 11.4 mph18.3 kmh 29.93 in1013.5 mb 0.03 in0.8 mm 0.12 in3.0 mm 0.42 in10.7 mm
09:24 AM 37.9°F3.3°C 36.3°F2.4°C 94% 5.6 mph SSW9.0 kmh SSW 7.6 mph12.2 kmh 29.92 in1013.2 mb 0.04 in1.0 mm 0.12 in3.0 mm 0.43 in10.9 mm
09:29 AM 37.9°F3.3°C 36.3°F2.4°C 94% 7.6 mph SW12.2 kmh SW 13.4 mph21.6 kmh 29.92 in1013.2 mb 0.06 in1.5 mm 0.24 in6.1 mm 0.45 in11.4 mm
09:34 AM 38.1°F3.4°C 36.9°F2.7°C 95% 6.5 mph S10.5 kmh S 8.1 mph13.0 kmh 29.92 in1013.2 mb 0.07 in1.8 mm 0.12 in3.0 mm 0.46 in11.7 mm
09:39 AM 38.1°F3.4°C 36.9°F2.7°C 95% 6.3 mph S10.1 kmh S 8.7 mph14.0 kmh 29.92 in1013.2 mb 0.08 in2.0 mm 0.12 in3.0 mm 0.47 in11.9 mm
09:44 AM 38.1°F3.4°C 36.9°F2.7°C 95% 6.3 mph S10.1 kmh S 8.1 mph13.0 kmh 29.92 in1013.2 mb 0.09 in2.3 mm 0.12 in3.0 mm 0.48 in12.2 mm
09:49 AM 38.3°F3.5°C 36.7°F2.6°C 94% 7.8 mph S12.6 kmh S 12.5 mph20.1 kmh 29.91 in1012.9 mb 0.10 in2.5 mm 0.12 in3.0 mm 0.49 in12.4 mm
09:54 AM 38.3°F3.5°C 37.0°F2.8°C 95% 6.5 mph SSW10.5 kmh SSW 8.9 mph14.3 kmh 29.91 in1012.9 mb 0.11 in2.8 mm 0.12 in3.0 mm 0.50 in12.7 mm
09:59 AM 38.5°F3.6°C 37.2°F2.9°C 95% 6.7 mph S10.8 kmh S 9.2 mph14.8 kmh 29.91 in1012.9 mb 0.12 in3.0 mm 0.12 in3.0 mm 0.51 in13.0 mm
10:04 AM 38.5°F3.6°C 37.2°F2.9°C 95% 6.3 mph SSW10.1 kmh SSW 11.2 mph18.0 kmh 29.90 in1012.5 mb 0.02 in0.5 mm 0.00 in0.0 mm 0.53 in13.5 mm
10:09 AM 38.5°F3.6°C 37.2°F2.9°C 95% 6.7 mph SW10.8 kmh SW 10.5 mph16.9 kmh 29.91 in1012.9 mb 0.03 in0.8 mm 0.12 in3.0 mm 0.54 in13.7 mm
10:14 AM 38.5°F3.6°C 37.2°F2.9°C 95% 7.6 mph SW12.2 kmh SW 12.3 mph19.8 kmh 29.91 in1012.9 mb 0.05 in1.3 mm 0.24 in6.1 mm 0.56 in14.2 mm
10:19 AM 38.5°F3.6°C 37.2°F2.9°C 95% 5.4 mph SW8.7 kmh SW 8.1 mph13.0 kmh 29.90 in1012.5 mb 0.05 in1.3 mm 0.00 in0.0 mm 0.56 in14.2 mm
10:24 AM 38.5°F3.6°C 37.2°F2.9°C 95% 5.1 mph S8.2 kmh S 6.7 mph10.8 kmh 29.90 in1012.5 mb 0.06 in1.5 mm 0.12 in3.0 mm 0.57 in14.5 mm
10:29 AM 38.5°F3.6°C 37.2°F2.9°C 95% 6.3 mph SSW10.1 kmh SSW 10.5 mph16.9 kmh 29.91 in1012.9 mb 0.09 in2.3 mm 0.36 in9.1 mm 0.60 in15.2 mm
10:34 AM 38.7°F3.7°C 37.4°F3.0°C 95% 7.2 mph SW11.6 kmh SW 12.5 mph20.1 kmh 29.90 in1012.5 mb 0.10 in2.5 mm 0.12 in3.0 mm 0.61 in15.5 mm
10:39 AM 38.7°F3.7°C 37.4°F3.0°C 95% 5.4 mph SW8.7 kmh SW 8.7 mph14.0 kmh 29.90 in1012.5 mb 0.12 in3.0 mm 0.24 in6.1 mm 0.63 in16.0 mm
10:44 AM 38.8°F3.8°C 37.6°F3.1°C 95% 5.4 mph SSW8.7 kmh SSW 10.3 mph16.6 kmh 29.90 in1012.5 mb 0.13 in3.3 mm 0.12 in3.0 mm 0.64 in16.3 mm
10:49 AM 38.8°F3.8°C 37.6°F3.1°C 95% 8.3 mph SSW13.4 kmh SSW 12.3 mph19.8 kmh 29.90 in1012.5 mb 0.14 in3.6 mm 0.12 in3.0 mm 0.65 in16.5 mm
10:54 AM 39.0°F3.9°C 37.8°F3.2°C 95% 8.1 mph SSW13.0 kmh SSW 14.1 mph22.7 kmh 29.89 in1012.2 mb 0.15 in3.8 mm 0.12 in3.0 mm 0.66 in16.8 mm
10:59 AM 39.0°F3.9°C 37.8°F3.2°C 95% 6.9 mph SW11.1 kmh SW 12.3 mph19.8 kmh 29.90 in1012.5 mb 0.16 in4.1 mm 0.12 in3.0 mm 0.67 in17.0 mm
11:04 AM 39.0°F3.9°C 37.8°F3.2°C 95% 8.5 mph SSW13.7 kmh SSW 15.2 mph24.5 kmh 29.90 in1012.5 mb 0.02 in0.5 mm 0.00 in0.0 mm 0.69 in17.5 mm
11:09 AM 39.2°F4.0°C 37.9°F3.3°C 95% 7.6 mph SSW12.2 kmh SSW 14.3 mph23.0 kmh 29.89 in1012.2 mb 0.03 in0.8 mm 0.12 in3.0 mm 0.70 in17.8 mm
11:14 AM 39.2°F4.0°C 37.9°F3.3°C 95% 9.4 mph SSW15.1 kmh SSW 15.9 mph25.6 kmh 29.89 in1012.2 mb 0.05 in1.3 mm 0.24 in6.1 mm 0.72 in18.3 mm
11:19 AM 39.4°F4.1°C 38.1°F3.4°C 95% 5.6 mph S9.0 kmh S 9.2 mph14.8 kmh 29.89 in1012.2 mb 0.06 in1.5 mm 0.12 in3.0 mm 0.73 in18.5 mm
11:24 AM 39.4°F4.1°C 38.1°F3.4°C 95% 7.4 mph SSW11.9 kmh SSW 11.4 mph18.3 kmh 29.89 in1012.2 mb 0.07 in1.8 mm 0.12 in3.0 mm 0.74 in18.8 mm
11:29 AM 39.4°F4.1°C 38.1°F3.4°C 95% 6.3 mph SW10.1 kmh SW 8.3 mph13.4 kmh 29.89 in1012.2 mb 0.09 in2.3 mm 0.24 in6.1 mm 0.76 in19.3 mm
11:34 AM 39.6°F4.2°C 38.3°F3.5°C 95% 7.6 mph SSW12.2 kmh SSW 10.7 mph17.2 kmh 29.89 in1012.2 mb 0.10 in2.5 mm 0.12 in3.0 mm 0.77 in19.6 mm
11:39 AM 39.6°F4.2°C 38.3°F3.5°C 95% 5.1 mph SSW8.2 kmh SSW 8.3 mph13.4 kmh 29.89 in1012.2 mb 0.11 in2.8 mm 0.12 in3.0 mm 0.78 in19.8 mm
11:44 AM 39.7°F4.3°C 38.5°F3.6°C 95% 7.8 mph SSW12.6 kmh SSW 10.1 mph16.3 kmh 29.89 in1012.2 mb 0.11 in2.8 mm 0.00 in0.0 mm 0.78 in19.8 mm
11:49 AM 39.7°F4.3°C 38.5°F3.6°C 95% 8.3 mph SSW13.4 kmh SSW 13.2 mph21.2 kmh 29.89 in1012.2 mb 0.13 in3.3 mm 0.24 in6.1 mm 0.80 in20.3 mm
11:54 AM 39.7°F4.3°C 38.5°F3.6°C 95% 6.9 mph S11.1 kmh S 14.3 mph23.0 kmh 29.88 in1011.9 mb 0.13 in3.3 mm 0.00 in0.0 mm 0.80 in20.3 mm
11:59 AM 39.9°F4.4°C 38.7°F3.7°C 95% 8.7 mph SSW14.0 kmh SSW 13.0 mph20.9 kmh 29.88 in1011.9 mb 0.14 in3.6 mm 0.12 in3.0 mm 0.81 in20.6 mm
12:04 PM 39.9°F4.4°C 38.7°F3.7°C 95% 6.9 mph SW11.1 kmh SW 11.2 mph18.0 kmh 29.88 in1011.9 mb 0.12 in3.0 mm 0.00 in0.0 mm 0.81 in20.6 mm
12:09 PM 40.1°F4.5°C 38.8°F3.8°C 95% 5.8 mph SW9.3 kmh SW 8.1 mph13.0 kmh 29.88 in1011.9 mb 0.11 in2.8 mm 0.00 in0.0 mm 0.81 in20.6 mm
12:14 PM 40.1°F4.5°C 38.8°F3.8°C 95% 6.5 mph SW10.5 kmh SW 9.4 mph15.1 kmh 29.88 in1011.9 mb 0.10 in2.5 mm 0.00 in0.0 mm 0.81 in20.6 mm
12:19 PM 40.3°F4.6°C 39.0°F3.9°C 95% 8.3 mph SW13.4 kmh SW 11.4 mph18.3 kmh 29.88 in1011.9 mb 0.08 in2.0 mm 0.00 in0.0 mm 0.81 in20.6 mm
12:24 PM 40.5°F4.7°C 39.2°F4.0°C 95% 11.6 mph SW18.7 kmh SW 18.1 mph29.1 kmh 29.87 in1011.5 mb 0.01 in0.3 mm 0.00 in0.0 mm 0.82 in20.8 mm
12:29 PM 40.6°F4.8°C 39.4°F4.1°C 95% 5.8 mph SSW9.3 kmh SSW 9.2 mph14.8 kmh 29.86 in1011.2 mb 0.02 in0.5 mm 0.12 in3.0 mm 0.83 in21.1 mm
12:34 PM 40.6°F4.8°C 39.4°F4.1°C 95% 8.5 mph SSW13.7 kmh SSW 13.4 mph21.6 kmh 29.85 in1010.8 mb 0.02 in0.5 mm 0.00 in0.0 mm 0.83 in21.1 mm
12:39 PM 40.8°F4.9°C 39.6°F4.2°C 95% 7.6 mph SSW12.2 kmh SSW 11.6 mph18.7 kmh 29.85 in1010.8 mb 0.03 in0.8 mm 0.12 in3.0 mm 0.84 in21.3 mm
12:44 PM 40.8°F4.9°C 39.6°F4.2°C 95% 11.6 mph S18.7 kmh S 32.4 mph52.1 kmh 29.84 in1010.5 mb 0.03 in0.8 mm 0.00 in0.0 mm 0.84 in21.3 mm
12:49 PM 41.0°F5.0°C 39.7°F4.3°C 95% 14.8 mph SW23.8 kmh SW 23.0 mph37.0 kmh 29.84 in1010.5 mb 0.03 in0.8 mm 0.00 in0.0 mm 0.84 in21.3 mm
12:54 PM 41.0°F5.0°C 39.7°F4.3°C 95% 10.3 mph SW16.6 kmh SW 17.4 mph28.0 kmh 29.84 in1010.5 mb 0.04 in1.0 mm 0.12 in3.0 mm 0.85 in21.6 mm
12:59 PM 41.2°F5.1°C 39.9°F4.4°C 95% 14.1 mph SW22.7 kmh SW 25.1 mph40.4 kmh 29.83 in1010.2 mb 0.04 in1.0 mm 0.00 in0.0 mm 0.85 in21.6 mm
01:04 PM 41.4°F5.2°C 40.1°F4.5°C 95% 15.2 mph SW24.5 kmh SW 22.6 mph36.4 kmh 29.82 in1009.8 mb 0.04 in1.0 mm 0.00 in0.0 mm 0.85 in21.6 mm
01:09 PM 41.5°F5.3°C 40.3°F4.6°C 95% 16.6 mph SW26.7 kmh SW 28.9 mph46.5 kmh 29.82 in1009.8 mb 0.01 in0.3 mm 0.00 in0.0 mm 0.86 in21.8 mm
01:14 PM 41.7°F5.4°C 40.5°F4.7°C 95% 15.4 mph SW24.8 kmh SW 25.7 mph41.4 kmh 29.81 in1009.5 mb 0.01 in0.3 mm 0.00 in0.0 mm 0.86 in21.8 mm
01:19 PM 41.7°F5.4°C 40.5°F4.7°C 95% 9.8 mph SSW15.8 kmh SSW 21.3 mph34.3 kmh 29.81 in1009.5 mb 0.01 in0.3 mm 0.00 in0.0 mm 0.86 in21.8 mm
01:24 PM 41.7°F5.4°C 40.1°F4.5°C 94% 16.1 mph SW25.9 kmh SW 28.4 mph45.7 kmh 29.81 in1009.5 mb 0.01 in0.3 mm 0.00 in0.0 mm 0.86 in21.8 mm
01:29 PM 41.9°F5.5°C 40.3°F4.6°C 94% 18.1 mph SW29.1 kmh SW 27.3 mph43.9 kmh 29.80 in1009.1 mb 0.01 in0.3 mm 0.00 in0.0 mm 0.86 in21.8 mm
01:34 PM 41.9°F5.5°C 40.3°F4.6°C 94% 20.4 mph SW32.8 kmh SW 30.9 mph49.7 kmh 29.80 in1009.1 mb 0.01 in0.3 mm 0.00 in0.0 mm 0.86 in21.8 mm
01:39 PM 41.9°F5.5°C 40.3°F4.6°C 94% 15.2 mph SW24.5 kmh SW 20.6 mph33.2 kmh 29.78 in1008.5 mb 0.01 in0.3 mm 0.00 in0.0 mm 0.86 in21.8 mm
01:44 PM 42.3°F5.7°C 40.6°F4.8°C 94% 15.0 mph SW24.1 kmh SW 21.9 mph35.2 kmh 29.78 in1008.5 mb 0.01 in0.3 mm 0.00 in0.0 mm 0.86 in21.8 mm
01:49 PM 42.4°F5.8°C 40.8°F4.9°C 94% 18.3 mph SW29.5 kmh SW 26.8 mph43.1 kmh 29.78 in1008.5 mb 0.01 in0.3 mm 0.00 in0.0 mm 0.86 in21.8 mm
01:54 PM 42.6°F5.9°C 41.0°F5.0°C 94% 15.7 mph SW25.3 kmh SW 24.8 mph39.9 kmh 29.78 in1008.5 mb 0.01 in0.3 mm 0.00 in0.0 mm 0.86 in21.8 mm
01:59 PM 42.8°F6.0°C 41.2°F5.1°C 94% 15.0 mph SSW24.1 kmh SSW 22.4 mph36.0 kmh 29.77 in1008.1 mb 0.01 in0.3 mm 0.00 in0.0 mm 0.86 in21.8 mm
02:04 PM 43.0°F6.1°C 41.4°F5.2°C 94% 21.7 mph SW34.9 kmh SW 33.1 mph53.3 kmh 29.77 in1008.1 mb 0.01 in0.3 mm 0.00 in0.0 mm 0.87 in22.1 mm
02:09 PM 43.0°F6.1°C 41.4°F5.2°C 94% 11.0 mph SSW17.7 kmh SSW 21.0 mph33.8 kmh 29.77 in1008.1 mb 0.01 in0.3 mm 0.00 in0.0 mm 0.87 in22.1 mm
02:14 PM 43.0°F6.1°C 41.2°F5.1°C 93% 18.8 mph SW30.3 kmh SW 31.8 mph51.2 kmh 29.76 in1007.8 mb 0.01 in0.3 mm 0.00 in0.0 mm 0.87 in22.1 mm
02:19 PM 43.0°F6.1°C 41.2°F5.1°C 93% 20.1 mph SW32.3 kmh SW 33.8 mph54.4 kmh 29.77 in1008.1 mb 0.01 in0.3 mm 0.00 in0.0 mm 0.87 in22.1 mm
02:24 PM 43.0°F6.1°C 41.4°F5.2°C 94% 17.7 mph S28.5 kmh S 37.6 mph60.5 kmh 29.77 in1008.1 mb 0.02 in0.5 mm 0.12 in3.0 mm 0.88 in22.4 mm
02:29 PM 43.0°F6.1°C 41.4°F5.2°C 94% 23.9 mph SW38.5 kmh SW 36.7 mph59.1 kmh 29.76 in1007.8 mb 0.02 in0.5 mm 0.00 in0.0 mm 0.88 in22.4 mm
02:34 PM 43.0°F6.1°C 41.4°F5.2°C 94% 14.8 mph SE23.8 kmh SE 36.9 mph59.4 kmh 29.76 in1007.8 mb 0.02 in0.5 mm 0.00 in0.0 mm 0.88 in22.4 mm
02:39 PM 43.2°F6.2°C 41.5°F5.3°C 94% 9.2 mph SE14.8 kmh SE 30.9 mph49.7 kmh 29.75 in1007.5 mb 0.02 in0.5 mm 0.00 in0.0 mm 0.88 in22.4 mm
02:44 PM 43.2°F6.2°C 41.5°F5.3°C 94% 12.8 mph SSE20.6 kmh SSE 24.4 mph39.3 kmh 29.75 in1007.5 mb 0.02 in0.5 mm 0.00 in0.0 mm 0.88 in22.4 mm
02:49 PM 43.2°F6.2°C 41.5°F5.3°C 94% 22.8 mph SSW36.7 kmh SSW 38.5 mph62.0 kmh 29.75 in1007.5 mb 0.02 in0.5 mm 0.00 in0.0 mm 0.88 in22.4 mm
02:54 PM 43.3°F6.3°C 41.7°F5.4°C 94% 11.6 mph S18.7 kmh S 30.2 mph48.6 kmh 29.75 in1007.5 mb 0.03 in0.8 mm 0.12 in3.0 mm 0.89 in22.6 mm
02:59 PM 43.3°F6.3°C 41.7°F5.4°C 94% 17.0 mph SW27.4 kmh SW 36.2 mph58.3 kmh 29.75 in1007.5 mb 0.03 in0.8 mm 0.00 in0.0 mm 0.89 in22.6 mm
03:04 PM 43.3°F6.3°C 41.7°F5.4°C 94% 15.2 mph ENE24.5 kmh ENE 30.0 mph48.3 kmh 29.75 in1007.5 mb 0.02 in0.5 mm 0.00 in0.0 mm 0.89 in22.6 mm
03:09 PM 43.5°F6.4°C 41.9°F5.5°C 94% 15.4 mph E24.8 kmh E 39.8 mph64.1 kmh 29.75 in1007.5 mb 0.02 in0.5 mm 0.00 in0.0 mm 0.89 in22.6 mm
03:14 PM 43.7°F6.5°C 41.7°F5.4°C 93% 12.3 mph S19.8 kmh S 28.0 mph45.1 kmh 29.75 in1007.5 mb 0.02 in0.5 mm 0.00 in0.0 mm 0.89 in22.6 mm
03:19 PM 43.7°F6.5°C 42.1°F5.6°C 94% 13.6 mph ESE21.9 kmh ESE 43.4 mph69.8 kmh 29.74 in1007.1 mb 0.02 in0.5 mm 0.00 in0.0 mm 0.89 in22.6 mm
03:24 PM 43.5°F6.4°C 41.7°F5.4°C 93% 10.3 mph SE16.6 kmh SE 19.9 mph32.0 kmh 29.74 in1007.1 mb 0.02 in0.5 mm 0.00 in0.0 mm 0.89 in22.6 mm
03:29 PM 43.7°F6.5°C 42.1°F5.6°C 94% 13.2 mph E21.2 kmh E 31.1 mph50.1 kmh 29.74 in1007.1 mb 0.01 in0.3 mm 0.00 in0.0 mm 0.89 in22.6 mm
03:34 PM 43.9°F6.6°C 42.3°F5.7°C 94% 15.9 mph ESE25.6 kmh ESE 43.8 mph70.5 kmh 29.74 in1007.1 mb 0.01 in0.3 mm 0.00 in0.0 mm 0.89 in22.6 mm
03:39 PM 43.7°F6.5°C 42.1°F5.6°C 94% 10.5 mph SE16.9 kmh SE 23.5 mph37.8 kmh 29.74 in1007.1 mb 0.01 in0.3 mm 0.00 in0.0 mm 0.89 in22.6 mm
03:44 PM 43.7°F6.5°C 42.1°F5.6°C 94% 4.3 mph SE6.9 kmh SE 11.2 mph18.0 kmh 29.74 in1007.1 mb 0.01 in0.3 mm 0.00 in0.0 mm 0.89 in22.6 mm
03:49 PM 43.7°F6.5°C 42.1°F5.6°C 94% 4.5 mph ESE7.2 kmh ESE 7.6 mph12.2 kmh 29.73 in1006.8 mb 0.01 in0.3 mm 0.00 in0.0 mm 0.89 in22.6 mm
03:54 PM 43.9°F6.6°C 42.3°F5.7°C 94% 5.8 mph ESE9.3 kmh ESE 19.5 mph31.4 kmh 29.73 in1006.8 mb 0.00 in0.0 mm 0.00 in0.0 mm 0.89 in22.6 mm
03:59 PM 43.9°F6.6°C 42.3°F5.7°C 94% 8.3 mph ESE13.4 kmh ESE 20.1 mph32.3 kmh 29.73 in1006.8 mb 0.00 in0.0 mm 0.00 in0.0 mm 0.89 in22.6 mm
04:04 PM 43.9°F6.6°C 42.3°F5.7°C 94% 8.9 mph E14.3 kmh E 18.1 mph29.1 kmh 29.73 in1006.8 mb 0.00 in0.0 mm 0.00 in0.0 mm 0.89 in22.6 mm
04:09 PM 44.1°F6.7°C 42.4°F5.8°C 94% 7.4 mph ESE11.9 kmh ESE 12.5 mph20.1 kmh 29.73 in1006.8 mb 0.00 in0.0 mm 0.00 in0.0 mm 0.89 in22.6 mm
04:14 PM 44.1°F6.7°C 42.4°F5.8°C 94% 4.0 mph SE6.4 kmh SE 14.3 mph23.0 kmh 29.72 in1006.4 mb 0.00 in0.0 mm 0.00 in0.0 mm 0.89 in22.6 mm
04:19 PM 44.1°F6.7°C 42.1°F5.6°C 93% 3.6 mph ESE5.8 kmh ESE 7.8 mph12.6 kmh 29.73 in1006.8 mb 0.00 in0.0 mm 0.00 in0.0 mm 0.89 in22.6 mm
04:24 PM 44.1°F6.7°C 42.1°F5.6°C 93% 5.4 mph E8.7 kmh E 26.2 mph42.2 kmh 29.72 in1006.4 mb 0.00 in0.0 mm 0.00 in0.0 mm 0.89 in22.6 mm
04:29 PM 44.1°F6.7°C 42.1°F5.6°C 93% 3.4 mph E5.5 kmh E 11.9 mph19.2 kmh 29.72 in1006.4 mb 0.00 in0.0 mm 0.00 in0.0 mm 0.89 in22.6 mm
04:34 PM 44.1°F6.7°C 42.4°F5.8°C 94% 8.5 mph E13.7 kmh E 21.5 mph34.6 kmh 29.72 in1006.4 mb 0.00 in0.0 mm 0.00 in0.0 mm 0.89 in22.6 mm
04:39 PM 44.2°F6.8°C 42.6°F5.9°C 94% 4.3 mph E6.9 kmh E 11.2 mph18.0 kmh 29.71 in1006.1 mb 0.00 in0.0 mm 0.00 in0.0 mm 0.89 in22.6 mm
04:44 PM 44.1°F6.7°C 42.4°F5.8°C 94% 10.3 mph ENE16.6 kmh ENE 21.0 mph33.8 kmh 29.71 in1006.1 mb 0.00 in0.0 mm 0.00 in0.0 mm 0.89 in22.6 mm
04:49 PM 44.2°F6.8°C 42.6°F5.9°C 94% 10.3 mph E16.6 kmh E 17.2 mph27.7 kmh 29.71 in1006.1 mb 0.00 in0.0 mm 0.00 in0.0 mm 0.89 in22.6 mm
04:54 PM 44.2°F6.8°C 42.6°F5.9°C 94% 9.2 mph E14.8 kmh E 19.2 mph30.9 kmh 29.71 in1006.1 mb 0.00 in0.0 mm 0.00 in0.0 mm 0.89 in22.6 mm
04:59 PM 44.2°F6.8°C 42.6°F5.9°C 94% 7.8 mph E12.6 kmh E 14.1 mph22.7 kmh 29.70 in1005.8 mb 0.00 in0.0 mm 0.00 in0.0 mm 0.89 in22.6 mm
05:04 PM 44.2°F6.8°C 42.6°F5.9°C 94% 11.2 mph E18.0 kmh E 17.2 mph27.7 kmh 29.71 in1006.1 mb 0.00 in0.0 mm 0.00 in0.0 mm 0.89 in22.6 mm
05:09 PM 44.2°F6.8°C 42.6°F5.9°C 94% 4.9 mph SE7.9 kmh SE 14.1 mph22.7 kmh 29.70 in1005.8 mb 0.00 in0.0 mm 0.00 in0.0 mm 0.89 in22.6 mm
05:14 PM 44.2°F6.8°C 42.6°F5.9°C 94% 6.0 mph E9.7 kmh E 15.0 mph24.1 kmh 29.71 in1006.1 mb 0.00 in0.0 mm 0.00 in0.0 mm 0.89 in22.6 mm
05:19 PM 44.4°F6.9°C 42.8°F6.0°C 94% 6.3 mph SE10.1 kmh SE 26.2 mph42.2 kmh 29.70 in1005.8 mb 0.00 in0.0 mm 0.00 in0.0 mm 0.89 in22.6 mm
05:24 PM 44.4°F6.9°C 42.8°F6.0°C 94% 9.2 mph E14.8 kmh E 19.9 mph32.0 kmh 29.70 in1005.8 mb 0.00 in0.0 mm 0.00 in0.0 mm 0.89 in22.6 mm
05:29 PM 44.4°F6.9°C 42.8°F6.0°C 94% 6.5 mph ESE10.5 kmh ESE 22.8 mph36.7 kmh 29.70 in1005.8 mb 0.00 in0.0 mm 0.00 in0.0 mm 0.89 in22.6 mm
05:34 PM 44.4°F6.9°C 42.8°F6.0°C 94% 6.0 mph E9.7 kmh E 12.5 mph20.1 kmh 29.70 in1005.8 mb 0.00 in0.0 mm 0.00 in0.0 mm 0.89 in22.6 mm
05:39 PM 44.6°F7.0°C 43.0°F6.1°C 94% 8.9 mph ENE14.3 kmh ENE 14.1 mph22.7 kmh 29.70 in1005.8 mb 0.00 in0.0 mm 0.00 in0.0 mm 0.89 in22.6 mm
05:44 PM 44.4°F6.9°C 42.8°F6.0°C 94% 6.7 mph NNW10.8 kmh NNW 23.5 mph37.8 kmh 29.70 in1005.8 mb 0.00 in0.0 mm 0.00 in0.0 mm 0.89 in22.6 mm
05:49 PM 44.4°F6.9°C 42.8°F6.0°C 94% 5.6 mph SE9.0 kmh SE 22.6 mph36.4 kmh 29.70 in1005.8 mb 0.00 in0.0 mm 0.00 in0.0 mm 0.89 in22.6 mm
05:54 PM 44.4°F6.9°C 43.2°F6.2°C 95% 14.5 mph S23.3 kmh S 37.4 mph60.2 kmh 29.69 in1005.4 mb 0.01 in0.3 mm 0.12 in3.0 mm 0.90 in22.9 mm
05:59 PM 44.4°F6.9°C 42.8°F6.0°C 94% 10.5 mph S16.9 kmh S 16.3 mph26.2 kmh 29.69 in1005.4 mb 0.01 in0.3 mm 0.00 in0.0 mm 0.90 in22.9 mm
06:04 PM 44.4°F6.9°C 43.2°F6.2°C 95% 9.2 mph SSE14.8 kmh SSE 18.3 mph29.5 kmh 29.69 in1005.4 mb 0.01 in0.3 mm 0.00 in0.0 mm 0.90 in22.9 mm
06:09 PM 44.6°F7.0°C 43.3°F6.3°C 95% 10.7 mph SSE17.2 kmh SSE 25.3 mph40.7 kmh 29.69 in1005.4 mb 0.01 in0.3 mm 0.00 in0.0 mm 0.90 in22.9 mm
06:14 PM 44.6°F7.0°C 43.3°F6.3°C 95% 10.3 mph SSW16.6 kmh SSW 21.7 mph34.9 kmh 29.69 in1005.4 mb 0.01 in0.3 mm 0.00 in0.0 mm 0.90 in22.9 mm
06:19 PM 44.6°F7.0°C 43.0°F6.1°C 94% 7.6 mph S12.2 kmh S 21.9 mph35.2 kmh 29.69 in1005.4 mb 0.01 in0.3 mm 0.00 in0.0 mm 0.90 in22.9 mm
06:24 PM 44.4°F6.9°C 42.8°F6.0°C 94% 8.1 mph S13.0 kmh S 15.4 mph24.8 kmh 29.69 in1005.4 mb 0.01 in0.3 mm 0.00 in0.0 mm 0.90 in22.9 mm
06:29 PM 44.4°F6.9°C 43.2°F6.2°C 95% 7.6 mph SSW12.2 kmh SSW 21.0 mph33.8 kmh 29.69 in1005.4 mb 0.01 in0.3 mm 0.00 in0.0 mm 0.90 in22.9 mm
06:34 PM 44.4°F6.9°C 43.2°F6.2°C 95% 6.9 mph S11.1 kmh S 16.1 mph25.9 kmh 29.69 in1005.4 mb 0.01 in0.3 mm 0.00 in0.0 mm 0.90 in22.9 mm
06:39 PM 44.4°F6.9°C 43.2°F6.2°C 95% 4.9 mph S7.9 kmh S 12.8 mph20.6 kmh 29.68 in1005.1 mb 0.01 in0.3 mm 0.00 in0.0 mm 0.90 in22.9 mm
06:44 PM 44.4°F6.9°C 43.2°F6.2°C 95% 9.8 mph SE15.8 kmh SE 20.4 mph32.8 kmh 29.67 in1004.7 mb 0.01 in0.3 mm 0.00 in0.0 mm 0.91 in23.1 mm
06:49 PM 44.4°F6.9°C 43.2°F6.2°C 95% 8.3 mph S13.4 kmh S 18.3 mph29.5 kmh 29.67 in1004.7 mb 0.01 in0.3 mm 0.00 in0.0 mm 0.91 in23.1 mm
06:54 PM 44.4°F6.9°C 43.2°F6.2°C 95% 17.4 mph SSW28.0 kmh SSW 47.6 mph76.6 kmh 29.67 in1004.7 mb 0.01 in0.3 mm 0.00 in0.0 mm 0.91 in23.1 mm
06:59 PM 44.4°F6.9°C 43.2°F6.2°C 95% 10.5 mph S16.9 kmh S 22.8 mph36.7 kmh 29.67 in1004.7 mb 0.01 in0.3 mm 0.00 in0.0 mm 0.91 in23.1 mm
07:04 PM 44.4°F6.9°C 43.2°F6.2°C 95% 11.4 mph S18.3 kmh S 34.2 mph55.0 kmh 29.67 in1004.7 mb 0.01 in0.3 mm 0.00 in0.0 mm 0.91 in23.1 mm
07:09 PM 44.4°F6.9°C 43.2°F6.2°C 95% 12.3 mph SSE19.8 kmh SSE 25.5 mph41.0 kmh 29.68 in1005.1 mb 0.01 in0.3 mm 0.00 in0.0 mm 0.91 in23.1 mm
07:14 PM 44.4°F6.9°C 43.2°F6.2°C 95% 14.8 mph S23.8 kmh S 39.1 mph62.9 kmh 29.68 in1005.1 mb 0.01 in0.3 mm 0.00 in0.0 mm 0.91 in23.1 mm
07:19 PM 44.4°F6.9°C 43.2°F6.2°C 95% 8.5 mph SSW13.7 kmh SSW 17.4 mph28.0 kmh 29.69 in1005.4 mb 0.00 in0.0 mm 0.00 in0.0 mm 0.91 in23.1 mm
07:24 PM 44.4°F6.9°C 43.2°F6.2°C 95% 7.6 mph S12.2 kmh S 14.1 mph22.7 kmh 29.70 in1005.8 mb 0.00 in0.0 mm 0.00 in0.0 mm 0.91 in23.1 mm
07:29 PM 44.4°F6.9°C 43.2°F6.2°C 95% 10.7 mph S17.2 kmh S 20.4 mph32.8 kmh 29.70 in1005.8 mb 0.00 in0.0 mm 0.00 in0.0 mm 0.91 in23.1 mm
07:34 PM 44.6°F7.0°C 43.3°F6.3°C 95% 13.0 mph SW20.9 kmh SW 31.8 mph51.2 kmh 29.70 in1005.8 mb 0.00 in0.0 mm 0.00 in0.0 mm 0.91 in23.1 mm
07:39 PM 44.6°F7.0°C 43.3°F6.3°C 95% 8.9 mph SSE14.3 kmh SSE 15.0 mph24.1 kmh 29.70 in1005.8 mb 0.00 in0.0 mm 0.00 in0.0 mm 0.91 in23.1 mm
07:44 PM 44.6°F7.0°C 43.3°F6.3°C 95% 3.8 mph SSW6.1 kmh SSW 6.7 mph10.8 kmh 29.72 in1006.4 mb 0.00 in0.0 mm 0.00 in0.0 mm 0.91 in23.1 mm
07:49 PM 44.6°F7.0°C 43.3°F6.3°C 95% 10.3 mph SW16.6 kmh SW 34.9 mph56.2 kmh 29.71 in1006.1 mb 0.00 in0.0 mm 0.00 in0.0 mm 0.91 in23.1 mm
07:54 PM 44.6°F7.0°C 43.3°F6.3°C 95% 9.6 mph SW15.4 kmh SW 16.1 mph25.9 kmh 29.71 in1006.1 mb 0.00 in0.0 mm 0.00 in0.0 mm 0.91 in23.1 mm
07:59 PM 44.6°F7.0°C 43.3°F6.3°C 95% 13.6 mph SSW21.9 kmh SSW 25.3 mph40.7 kmh 29.72 in1006.4 mb 0.00 in0.0 mm 0.00 in0.0 mm 0.91 in23.1 mm
08:04 PM 44.8°F7.1°C 43.5°F6.4°C 95% 5.8 mph SSW9.3 kmh SSW 10.7 mph17.2 kmh 29.71 in1006.1 mb 0.00 in0.0 mm 0.00 in0.0 mm 0.91 in23.1 mm
08:09 PM 44.8°F7.1°C 43.5°F6.4°C 95% 3.8 mph SW6.1 kmh SW 7.2 mph11.6 kmh 29.70 in1005.8 mb 0.01 in0.3 mm 0.12 in3.0 mm 0.91 in23.1 mm
08:14 PM 44.6°F7.0°C 43.3°F6.3°C 95% 5.4 mph SSE8.7 kmh SSE 8.1 mph13.0 kmh 29.70 in1005.8 mb 0.01 in0.3 mm 0.00 in0.0 mm 0.91 in23.1 mm
08:19 PM 44.6°F7.0°C 43.3°F6.3°C 95% 5.6 mph SSW9.0 kmh SSW 9.2 mph14.8 kmh 29.70 in1005.8 mb 0.01 in0.3 mm 0.00 in0.0 mm 0.91 in23.1 mm
08:24 PM 44.4°F6.9°C 43.2°F6.2°C 95% 4.5 mph SSW7.2 kmh SSW 10.7 mph17.2 kmh 29.70 in1005.8 mb 0.01 in0.3 mm 0.00 in0.0 mm 0.91 in23.1 mm
08:29 PM 44.4°F6.9°C 43.2°F6.2°C 95% 8.1 mph S13.0 kmh S 14.8 mph23.8 kmh 29.70 in1005.8 mb 0.01 in0.3 mm 0.00 in0.0 mm 0.91 in23.1 mm
08:34 PM 44.4°F6.9°C 43.2°F6.2°C 95% 8.3 mph S13.4 kmh S 13.4 mph21.6 kmh 29.70 in1005.8 mb 0.01 in0.3 mm 0.00 in0.0 mm 0.92 in23.4 mm
08:39 PM 44.4°F6.9°C 43.2°F6.2°C 95% 4.5 mph S7.2 kmh S 7.6 mph12.2 kmh 29.70 in1005.8 mb 0.01 in0.3 mm 0.00 in0.0 mm 0.92 in23.4 mm
08:44 PM 44.4°F6.9°C 43.3°F6.3°C 96% 8.3 mph SSE13.4 kmh SSE 17.2 mph27.7 kmh 29.70 in1005.8 mb 0.01 in0.3 mm 0.00 in0.0 mm 0.92 in23.4 mm
08:49 PM 44.4°F6.9°C 43.3°F6.3°C 96% 5.6 mph SSE9.0 kmh SSE 9.6 mph15.4 kmh 29.70 in1005.8 mb 0.01 in0.3 mm 0.00 in0.0 mm 0.92 in23.4 mm
08:54 PM 44.4°F6.9°C 43.3°F6.3°C 96% 7.6 mph S12.2 kmh S 12.8 mph20.6 kmh 29.70 in1005.8 mb 0.01 in0.3 mm 0.00 in0.0 mm 0.92 in23.4 mm
08:59 PM 44.6°F7.0°C 43.5°F6.4°C 96% 7.4 mph SSE11.9 kmh SSE 12.3 mph19.8 kmh 29.70 in1005.8 mb 0.01 in0.3 mm 0.00 in0.0 mm 0.92 in23.4 mm
09:04 PM 44.4°F6.9°C 43.3°F6.3°C 96% 6.0 mph S9.7 kmh S 9.8 mph15.8 kmh 29.70 in1005.8 mb 0.01 in0.3 mm 0.00 in0.0 mm 0.93 in23.6 mm
09:09 PM 44.6°F7.0°C 43.5°F6.4°C 96% 4.9 mph S7.9 kmh S 7.2 mph11.6 kmh 29.69 in1005.4 mb 0.01 in0.3 mm 0.00 in0.0 mm 0.93 in23.6 mm
09:14 PM 44.4°F6.9°C 43.3°F6.3°C 96% 3.4 mph SSW5.5 kmh SSW 6.0 mph9.7 kmh 29.69 in1005.4 mb 0.01 in0.3 mm 0.00 in0.0 mm 0.93 in23.6 mm
09:19 PM 44.4°F6.9°C 43.3°F6.3°C 96% 4.9 mph SW7.9 kmh SW 13.2 mph21.2 kmh 29.69 in1005.4 mb 0.01 in0.3 mm 0.00 in0.0 mm 0.93 in23.6 mm
09:24 PM 44.6°F7.0°C 43.5°F6.4°C 96% 2.5 mph NW4.0 kmh NW 6.7 mph10.8 kmh 29.69 in1005.4 mb 0.01 in0.3 mm 0.00 in0.0 mm 0.93 in23.6 mm
09:29 PM 44.2°F6.8°C 43.2°F6.2°C 96% 4.0 mph NNW6.4 kmh NNW 5.4 mph8.7 kmh 29.69 in1005.4 mb 0.01 in0.3 mm 0.00 in0.0 mm 0.93 in23.6 mm
09:34 PM 44.2°F6.8°C 43.2°F6.2°C 96% 1.8 mph NW2.9 kmh NW 3.4 mph5.5 kmh 29.69 in1005.4 mb 0.01 in0.3 mm 0.00 in0.0 mm 0.93 in23.6 mm
09:39 PM 44.1°F6.7°C 43.0°F6.1°C 96% 2.7 mph NW4.3 kmh NW 13.9 mph22.4 kmh 29.69 in1005.4 mb 0.01 in0.3 mm 0.00 in0.0 mm 0.93 in23.6 mm
09:44 PM 43.7°F6.5°C 42.6°F5.9°C 96% 3.6 mph NNW5.8 kmh NNW 4.7 mph7.6 kmh 29.69 in1005.4 mb 0.01 in0.3 mm 0.00 in0.0 mm 0.93 in23.6 mm
09:49 PM 43.2°F6.2°C 41.9°F5.5°C 95% 1.8 mph NNW2.9 kmh NNW 3.4 mph5.5 kmh 29.69 in1005.4 mb 0.01 in0.3 mm 0.00 in0.0 mm 0.93 in23.6 mm
09:54 PM 43.0°F6.1°C 41.7°F5.4°C 95% 1.8 mph NNW2.9 kmh NNW 4.7 mph7.6 kmh 29.70 in1005.8 mb 0.01 in0.3 mm 0.00 in0.0 mm 0.93 in23.6 mm
09:59 PM 42.8°F6.0°C 41.5°F5.3°C 95% 1.8 mph NW2.9 kmh NW 2.9 mph4.7 kmh 29.70 in1005.8 mb 0.01 in0.3 mm 0.00 in0.0 mm 0.93 in23.6 mm
10:04 PM 42.6°F5.9°C 41.4°F5.2°C 95% 2.2 mph NNW3.5 kmh NNW 5.8 mph9.3 kmh 29.70 in1005.8 mb 0.00 in0.0 mm 0.00 in0.0 mm 0.93 in23.6 mm
10:09 PM 42.6°F5.9°C 41.4°F5.2°C 95% 0.4 mph NW0.6 kmh NW 1.3 mph2.1 kmh 29.70 in1005.8 mb 0.00 in0.0 mm 0.00 in0.0 mm 0.93 in23.6 mm
10:14 PM 42.6°F5.9°C 41.4°F5.2°C 95% 1.8 mph NNW2.9 kmh NNW 2.7 mph4.3 kmh 29.70 in1005.8 mb 0.00 in0.0 mm 0.00 in0.0 mm 0.93 in23.6 mm
10:19 PM 42.4°F5.8°C 41.2°F5.1°C 95% 2.0 mph NNW3.2 kmh NNW 4.0 mph6.4 kmh 29.70 in1005.8 mb 0.00 in0.0 mm 0.00 in0.0 mm 0.93 in23.6 mm
10:24 PM 42.4°F5.8°C 41.2°F5.1°C 95% 1.6 mph NW2.6 kmh NW 2.2 mph3.5 kmh 29.70 in1005.8 mb 0.00 in0.0 mm 0.00 in0.0 mm 0.93 in23.6 mm
10:29 PM 42.3°F5.7°C 41.0°F5.0°C 95% 0.7 mph W1.1 kmh W 2.9 mph4.7 kmh 29.70 in1005.8 mb 0.00 in0.0 mm 0.00 in0.0 mm 0.93 in23.6 mm
10:34 PM 42.3°F5.7°C 41.0°F5.0°C 95% 0.9 mph NW1.4 kmh NW 2.9 mph4.7 kmh 29.70 in1005.8 mb 0.00 in0.0 mm 0.00 in0.0 mm 0.93 in23.6 mm
10:39 PM 42.3°F5.7°C 41.0°F5.0°C 95% 2.2 mph NW3.5 kmh NW 4.7 mph7.6 kmh 29.70 in1005.8 mb 0.00 in0.0 mm 0.00 in0.0 mm 0.93 in23.6 mm
10:44 PM 42.3°F5.7°C 41.0°F5.0°C 95% 2.5 mph NW4.0 kmh NW 8.5 mph13.7 kmh 29.70 in1005.8 mb 0.00 in0.0 mm 0.00 in0.0 mm 0.93 in23.6 mm
10:49 PM 42.3°F5.7°C 41.0°F5.0°C 95% 0.2 mph NE0.3 kmh NE 1.8 mph2.9 kmh 29.69 in1005.4 mb 0.00 in0.0 mm 0.00 in0.0 mm 0.93 in23.6 mm
10:54 PM 41.7°F5.4°C 40.1°F4.5°C 94% 2.0 mph NNW3.2 kmh NNW 3.6 mph5.8 kmh 29.69 in1005.4 mb 0.00 in0.0 mm 0.00 in0.0 mm 0.93 in23.6 mm
10:59 PM 41.4°F5.2°C 39.7°F4.3°C 94% 2.5 mph NNW4.0 kmh NNW 3.1 mph5.0 kmh 29.69 in1005.4 mb 0.00 in0.0 mm 0.00 in0.0 mm 0.93 in23.6 mm
11:04 PM 41.0°F5.0°C 39.4°F4.1°C 94% 4.0 mph NNW6.4 kmh NNW 7.4 mph11.9 kmh 29.69 in1005.4 mb 0.00 in0.0 mm 0.00 in0.0 mm 0.93 in23.6 mm
11:09 PM 40.6°F4.8°C 39.0°F3.9°C 94% 3.8 mph N6.1 kmh N 6.0 mph9.7 kmh 29.69 in1005.4 mb 0.00 in0.0 mm 0.00 in0.0 mm 0.93 in23.6 mm
11:14 PM 40.3°F4.6°C 38.7°F3.7°C 94% 3.8 mph N6.1 kmh N 5.4 mph8.7 kmh 29.69 in1005.4 mb 0.00 in0.0 mm 0.00 in0.0 mm 0.93 in23.6 mm
11:19 PM 40.1°F4.5°C 38.5°F3.6°C 94% 3.8 mph N6.1 kmh N 5.4 mph8.7 kmh 29.69 in1005.4 mb 0.00 in0.0 mm 0.00 in0.0 mm 0.93 in23.6 mm
11:24 PM 39.7°F4.3°C 38.1°F3.4°C 94% 2.9 mph N4.7 kmh N 4.0 mph6.4 kmh 29.69 in1005.4 mb 0.00 in0.0 mm 0.00 in0.0 mm 0.93 in23.6 mm
11:29 PM 39.2°F4.0°C 37.6°F3.1°C 94% 2.7 mph NW4.3 kmh NW 6.7 mph10.8 kmh 29.69 in1005.4 mb 0.01 in0.3 mm 0.12 in3.0 mm 0.94 in23.9 mm
11:34 PM 39.2°F4.0°C 37.4°F3.0°C 93% 4.0 mph N6.4 kmh N 7.2 mph11.6 kmh 29.68 in1005.1 mb 0.01 in0.3 mm 0.00 in0.0 mm 0.94 in23.9 mm
11:39 PM 38.8°F3.8°C 37.2°F2.9°C 94% 2.2 mph N3.5 kmh N 3.6 mph5.8 kmh 29.68 in1005.1 mb 0.01 in0.3 mm 0.00 in0.0 mm 0.94 in23.9 mm
11:44 PM 38.5°F3.6°C 36.7°F2.6°C 93% 4.0 mph N6.4 kmh N 6.3 mph10.1 kmh 29.68 in1005.1 mb 0.01 in0.3 mm 0.00 in0.0 mm 0.94 in23.9 mm
11:49 PM 38.5°F3.6°C 36.9°F2.7°C 94% 2.7 mph NNW4.3 kmh NNW 3.6 mph5.8 kmh 29.68 in1005.1 mb 0.02 in0.5 mm 0.12 in3.0 mm 0.95 in24.1 mm
11:54 PM 38.3°F3.5°C 36.7°F2.6°C 94% 2.7 mph NNW4.3 kmh NNW 5.4 mph8.7 kmh 29.68 in1005.1 mb 0.02 in0.5 mm 0.00 in0.0 mm 0.95 in24.1 mm
11:59 PM 38.1°F3.4°C 36.5°F2.5°C 94% 1.8 mph N2.9 kmh N 3.6 mph5.8 kmh 29.68 in1005.1 mb 0.03 in0.8 mm 0.12 in3.0 mm 0.96 in24.4 mm